Details From KPHX - Phoenix Sky Harbor Intl
To KTVL - South Lake Tahoe
Flight Number -
Tags Generated
Created
Modified
Stats Distance 507 nm / 939 km
Max Altitude 0 ft / 0 m
Waypoints 4
Social Downloads 1
Likes 0
Share VATSIM

Download

Looking for another format? Having issues loading an existing format? Contact us
Advertisement - Login to hide

Notes

Generated

Route

KPHX ISSAR GENNE KTVL

ID Type Via Altitude Latitude Longitude Leg Dist Tot Dist Heading (true) Name
O KPHX APT - 0 ft / 0 m 33.42886˚ -112.02710˚ - 0 nm - -
ISSAR FIX - 0 ft / 0 m 36.04433˚ -115.57550˚ 235 nm 235 nm 313° / 311° -
GENNE FIX - 0 ft / 0 m 38.71513˚ -119.63523˚ 251 nm 486 nm 311° / 308° -
O KTVL APT - 0 ft / 0 m 38.90531˚ -119.99198˚ 20 nm 506 nm 304° / 304° -

Altitude Profile

Advertisement - Login to hide

Weather


0- 5 10 15 20 25 30 35+ Temperature / ° C

Clouds and Precipitation
Forecast for 2017-12-14 12:00 UTC. Updated 2 hours ago

Ground ~20,000 ft ~40,000 ft Winds

KPHX

Details ICAO KPHX (PHX)
Name Phoenix Sky Harbor Intl
Region United States
Timezone America/Phoenix (UTC-7.0)
Stats Elevation 1,135 ft / 346 m (AMSL)
Location 33.433580° -112.011837°
Runways 3
Magnetic Variation 10.316° E

METAR

KPHX 141251Z 11004KT 10SM CLR 08/M06 A2991 RMK AO2 SLP120 T00831061 $

Decode

TAF

KPHX 141122Z 1412/1518 08007KT P6SM SCT250 FM142000 02008G15KT P6SM SKC FM150300 04007KT P6SM SKC FM150700 VRB05KT P6SM SKC FM151300 08009KT P6SM SKC

Decode

Departure Runways

ID Width Length Bearing (true) Bearing (mag) Surface Threshold Offset Overrun Length
07L 151 ft / 46 m 10,279 ft / 3,133 m 90.03° 79.71° Concrete 0 ft / 0 m 400 ft / 122 m
07R 151 ft / 46 m 7,785 ft / 2,373 m 90.03° 79.71° Concrete 0 ft / 0 m 499 ft / 152 m
08 151 ft / 46 m 11,467 ft / 3,495 m 90.06° 79.74° Concrete 899 ft / 274 m 377 ft / 115 m
25L 151 ft / 46 m 7,785 ft / 2,373 m 270.05° 259.73° Concrete 0 ft / 0 m 702 ft / 214 m
25R 151 ft / 46 m 10,279 ft / 3,133 m 270.05° 259.73° Concrete 0 ft / 0 m 991 ft / 302 m
26 151 ft / 46 m 11,467 ft / 3,495 m 270.08° 259.76° Concrete 0 ft / 0 m 0 ft / 0 m

KTVL

Details ICAO KTVL (TVL)
Name South Lake Tahoe
Region United States
Timezone America/Los_Angeles (UTC-8.0)
Stats Elevation 6,264 ft / 1,909 m (AMSL)
Location 38.893882° -119.995335°
Runways 1
Magnetic Variation 13.321° E

METAR

KTVL 141253Z AUTO 20004KT 10SM CLR M07/M10 A3034 RMK AO2 SLP295 T10721100

Decode

TAF

TAF KTVL 141120Z 1412/1512 VRB04KT P6SM SCT250

Decode

Destination Runways

ID Width Length Bearing (true) Bearing (mag) Surface Threshold Offset Overrun Length
18 150 ft / 46 m 8,556 ft / 2,608 m 192.88° 179.56° Asphalt 0 ft / 0 m 0 ft / 0 m
36 150 ft / 46 m 8,556 ft / 2,608 m 12.88° 359.56° Asphalt 2,037 ft / 621 m 0 ft / 0 m

Approach Navaids

Runway Type Ident Frequency Range Bearing (true) Bearing (mag) Slope Elevation
18 Localiser ITVL 108.90 MHz 18 nm / 33 km 186.00° 172.68° - 6,264 ft / 1,909 m (AMSL)
18 DME ITVL 108.90 MHz 18 nm / 33 km - - - 6,264 ft / 1,909 m (AMSL)